createdAt,value
2023-04-19T00:00:14.090Z,0.50
2023-04-19T00:01:14.092Z,0.50
2023-04-19T00:02:14.168Z,0.50
2023-04-19T00:03:14.185Z,0.38
2023-04-19T00:04:14.310Z,0.34
2023-04-19T00:05:14.183Z,0.34
2023-04-19T00:06:14.101Z,0.34
2023-04-19T00:07:14.110Z,0.34
2023-04-19T00:08:14.134Z,0.35
2023-04-19T00:09:14.138Z,0.39
2023-04-19T00:10:14.176Z,0.43
2023-04-19T00:11:14.189Z,0.49
2023-04-19T00:12:14.189Z,0.50
2023-04-19T00:13:14.282Z,0.50
2023-04-19T00:14:14.707Z,0.50
2023-04-19T00:15:14.249Z,0.50
2023-04-19T00:16:14.278Z,0.50
2023-04-19T00:17:14.264Z,0.50
2023-04-19T00:18:14.296Z,0.50
2023-04-19T00:19:14.301Z,0.50
2023-04-19T00:20:14.321Z,0.50
2023-04-19T00:21:14.341Z,0.50
2023-04-19T00:22:14.367Z,0.50
2023-04-19T00:23:14.380Z,0.50
2023-04-19T00:24:14.626Z,0.50
2023-04-19T00:25:14.413Z,0.50
2023-04-19T00:26:14.433Z,0.51
2023-04-19T00:27:14.443Z,0.50
2023-04-19T00:28:14.460Z,0.50
2023-04-19T00:29:14.591Z,0.51
2023-04-19T00:30:14.522Z,0.50
2023-04-19T00:31:14.589Z,0.50
2023-04-19T00:32:14.528Z,0.51
2023-04-19T00:33:14.702Z,0.50
2023-04-19T00:34:14.773Z,0.50
2023-04-19T00:35:14.592Z,0.50
2023-04-19T00:36:14.601Z,0.50
2023-04-19T00:37:14.621Z,0.50
2023-04-19T00:38:14.647Z,0.50
2023-04-19T00:39:14.659Z,0.50
2023-04-19T00:40:14.680Z,0.50
2023-04-19T00:41:14.692Z,0.50
2023-04-19T00:42:14.710Z,0.50
2023-04-19T00:43:14.729Z,0.51
2023-04-19T00:44:15.006Z,0.51
2023-04-19T00:45:14.922Z,0.51
2023-04-19T00:46:14.857Z,0.50
2023-04-19T00:47:14.791Z,0.51
2023-04-19T00:48:14.817Z,0.50
2023-04-19T00:49:14.832Z,0.50
2023-04-19T00:50:14.864Z,0.51
2023-04-19T00:51:14.873Z,0.51
2023-04-19T00:52:14.887Z,0.50
2023-04-19T00:53:14.909Z,0.51
2023-04-19T00:54:15.202Z,0.51
2023-04-19T00:55:14.939Z,0.50
2023-04-19T00:56:14.958Z,0.50
2023-04-19T00:57:14.999Z,0.51
2023-04-19T00:58:15.019Z,0.51
2023-04-19T00:59:15.032Z,0.51
2023-04-19T01:00:15.063Z,0.51
2023-04-19T01:01:15.114Z,0.51
2023-04-19T01:02:15.229Z,0.51
2023-04-19T01:03:15.201Z,0.50
2023-04-19T01:04:15.617Z,0.52
2023-04-19T01:05:15.188Z,0.51
2023-04-19T01:06:15.194Z,0.51
2023-04-19T01:07:15.214Z,0.51
2023-04-19T01:08:15.240Z,0.50
2023-04-19T01:09:15.266Z,0.50
2023-04-19T01:10:15.292Z,0.50
2023-04-19T01:11:15.306Z,0.51
2023-04-19T01:12:15.338Z,0.51
2023-04-19T01:13:15.369Z,0.51
2023-04-19T01:14:15.816Z,0.51
2023-04-19T01:15:15.411Z,0.51
2023-04-19T01:16:15.488Z,0.51
2023-04-19T01:17:15.506Z,0.50
2023-04-19T01:18:15.497Z,0.50
2023-04-19T01:19:15.532Z,0.50
2023-04-19T01:20:15.598Z,0.50
2023-04-19T01:21:15.595Z,0.51
2023-04-19T01:22:15.624Z,0.51
2023-04-19T01:23:15.646Z,0.51
2023-04-19T01:24:15.892Z,0.51
2023-04-19T01:25:15.747Z,0.50
2023-04-19T01:26:15.730Z,0.51
2023-04-19T01:27:15.775Z,0.50
2023-04-19T01:28:15.802Z,0.50
2023-04-19T01:29:15.814Z,0.51
2023-04-19T01:30:15.811Z,0.51
2023-04-19T01:31:15.870Z,0.50
2023-04-19T01:32:15.869Z,0.51
2023-04-19T01:33:15.931Z,0.51
2023-04-19T01:34:16.157Z,0.51
2023-04-19T01:35:15.970Z,0.51
2023-04-19T01:36:15.993Z,0.51
2023-04-19T01:37:16.031Z,0.51
2023-04-19T01:38:16.047Z,0.50
2023-04-19T01:39:16.093Z,0.51
2023-04-19T01:40:16.095Z,0.51
2023-04-19T01:41:16.138Z,0.50
2023-04-19T01:42:16.184Z,0.51
2023-04-19T01:43:16.190Z,0.51
2023-04-19T01:44:16.551Z,0.51
2023-04-19T01:45:16.234Z,0.51
2023-04-19T01:46:16.340Z,0.51
2023-04-19T01:47:16.362Z,0.51
2023-04-19T01:48:16.352Z,0.50
2023-04-19T01:49:16.372Z,0.51
2023-04-19T01:50:16.371Z,0.51
2023-04-19T01:51:16.396Z,0.51
2023-04-19T01:52:16.423Z,0.51
2023-04-19T01:53:16.684Z,0.51
2023-04-19T01:54:16.739Z,0.51
2023-04-19T01:55:16.502Z,0.51
2023-04-19T01:56:16.530Z,0.51
2023-04-19T01:57:16.673Z,0.51
2023-04-19T01:58:16.584Z,0.51
2023-04-19T01:59:16.613Z,0.50
2023-04-19T02:00:16.641Z,0.50
2023-04-19T02:01:16.696Z,0.51
2023-04-19T02:02:16.768Z,0.52
2023-04-19T02:03:17.009Z,0.50
2023-04-19T02:04:17.040Z,0.50
2023-04-19T02:05:16.807Z,0.51
2023-04-19T02:06:16.822Z,0.51
2023-04-19T02:07:16.840Z,0.51
2023-04-19T02:08:17.686Z,0.51
2023-04-19T02:09:16.909Z,0.51
2023-04-19T02:10:16.925Z,0.52
2023-04-19T02:11:16.946Z,0.51
2023-04-19T02:12:16.973Z,0.52
2023-04-19T02:13:17.000Z,0.51
2023-04-19T02:14:17.337Z,0.51
2023-04-19T02:15:17.056Z,0.51
2023-04-19T02:16:17.125Z,0.51
2023-04-19T02:17:17.115Z,0.52
2023-04-19T02:18:17.138Z,0.51
2023-04-19T02:19:17.161Z,0.52
2023-04-19T02:20:17.207Z,0.52
2023-04-19T02:21:17.246Z,0.52
2023-04-19T02:22:17.236Z,0.51
2023-04-19T02:23:17.256Z,0.52
2023-04-19T02:24:17.564Z,0.51
2023-04-19T02:25:17.306Z,0.51
2023-04-19T02:26:17.349Z,0.52
2023-04-19T02:27:17.367Z,0.50
2023-04-19T02:28:17.388Z,0.51
2023-04-19T02:29:17.419Z,0.51
2023-04-19T02:30:17.448Z,0.51
2023-04-19T02:31:17.506Z,0.51
2023-04-19T02:32:17.504Z,0.51
2023-04-19T02:33:17.537Z,0.51
2023-04-19T02:34:17.937Z,0.51
2023-04-19T02:35:17.592Z,0.51
2023-04-19T02:36:17.610Z,0.50
2023-04-19T02:37:17.701Z,0.51
2023-04-19T02:38:17.669Z,0.51
2023-04-19T02:39:18.118Z,0.51
2023-04-19T02:40:17.719Z,0.51
2023-04-19T02:41:17.744Z,0.51
2023-04-19T02:42:17.771Z,0.51
2023-04-19T02:43:17.787Z,0.51
2023-04-19T02:44:18.012Z,0.51
2023-04-19T02:45:17.844Z,0.51
2023-04-19T02:46:17.877Z,0.50
2023-04-19T02:47:17.891Z,0.51
2023-04-19T02:48:17.913Z,0.51
2023-04-19T02:49:17.930Z,0.51
2023-04-19T02:50:17.962Z,0.52
2023-04-19T02:51:17.991Z,0.51
2023-04-19T02:52:18.022Z,0.50
2023-04-19T02:53:18.062Z,0.51
2023-04-19T02:54:18.057Z,0.51
2023-04-19T02:55:18.108Z,0.51
2023-04-19T02:56:18.124Z,0.50
2023-04-19T02:57:18.161Z,0.51
2023-04-19T02:58:18.178Z,0.51
2023-04-19T02:59:18.211Z,0.51
2023-04-19T03:00:18.243Z,0.51
2023-04-19T03:01:18.283Z,0.51
2023-04-19T03:02:18.318Z,0.51
2023-04-19T03:03:18.526Z,0.51
2023-04-19T03:04:18.568Z,0.51
2023-04-19T03:05:18.376Z,0.52
2023-04-19T03:06:18.402Z,0.51
2023-04-19T03:07:18.417Z,0.51
2023-04-19T03:08:18.460Z,0.51
2023-04-19T03:09:18.506Z,0.51
2023-04-19T03:10:18.526Z,0.51
2023-04-19T03:11:18.542Z,0.51
2023-04-19T03:12:18.565Z,0.51
2023-04-19T03:13:18.589Z,0.51
2023-04-19T03:14:18.624Z,0.51
2023-04-19T03:15:18.649Z,0.51
2023-04-19T03:16:18.707Z,0.51
2023-04-19T03:17:18.711Z,0.51
2023-04-19T03:18:19.123Z,0.51
2023-04-19T03:19:18.769Z,0.52
2023-04-19T03:20:18.799Z,0.51
2023-04-19T03:21:18.831Z,0.51
2023-04-19T03:22:18.859Z,0.51
2023-04-19T03:23:18.894Z,0.50
2023-04-19T03:24:18.926Z,0.51
2023-04-19T03:25:18.981Z,0.51
2023-04-19T03:26:18.980Z,0.52
2023-04-19T03:27:19.018Z,0.51
2023-04-19T03:28:19.047Z,0.51
2023-04-19T03:29:19.063Z,0.51
2023-04-19T03:30:19.084Z,0.50
2023-04-19T03:31:19.138Z,0.50
2023-04-19T03:32:19.137Z,0.50
2023-04-19T03:33:19.159Z,0.51
2023-04-19T03:34:19.184Z,0.50
2023-04-19T03:35:19.190Z,0.51
2023-04-19T03:36:19.213Z,0.50
2023-04-19T03:37:19.232Z,0.50
2023-04-19T03:38:19.240Z,0.50
2023-04-19T03:39:19.274Z,0.51
2023-04-19T03:40:19.277Z,0.51
2023-04-19T03:41:19.316Z,0.50
2023-04-19T03:42:19.308Z,0.51
2023-04-19T03:43:19.315Z,0.50
2023-04-19T03:44:19.324Z,0.51
2023-04-19T03:45:19.345Z,0.51
2023-04-19T03:46:19.396Z,0.51
2023-04-19T03:47:19.382Z,0.51
2023-04-19T03:48:19.376Z,0.50
2023-04-19T03:49:19.398Z,0.51
2023-04-19T03:50:19.397Z,0.51
2023-04-19T03:51:19.836Z,0.51
2023-04-19T03:52:19.411Z,0.51
2023-04-19T03:53:19.415Z,0.51
2023-04-19T03:54:19.427Z,0.51
2023-04-19T03:55:19.429Z,0.51
2023-04-19T03:56:19.434Z,0.50
2023-04-19T03:57:19.480Z,0.50
2023-04-19T03:58:19.456Z,0.51
2023-04-19T03:59:19.455Z,0.51
2023-04-19T04:00:19.456Z,0.50
2023-04-19T04:01:19.466Z,0.51
2023-04-19T04:02:19.641Z,0.51
2023-04-19T04:03:19.658Z,0.51
2023-04-19T04:04:19.939Z,0.51
2023-04-19T04:05:19.512Z,0.52
2023-04-19T04:06:19.490Z,0.51
2023-04-19T04:07:19.491Z,0.51
2023-04-19T04:08:19.502Z,0.51
2023-04-19T04:09:19.505Z,0.51
2023-04-19T04:10:19.514Z,0.51
2023-04-19T04:11:19.510Z,0.51
2023-04-19T04:12:19.537Z,0.51
2023-04-19T04:13:19.589Z,0.51
2023-04-19T04:14:19.513Z,0.50
2023-04-19T04:15:19.505Z,0.51
2023-04-19T04:16:19.553Z,0.50
2023-04-19T04:17:19.548Z,0.51
2023-04-19T04:18:19.496Z,0.50
2023-04-19T04:19:19.491Z,0.51
2023-04-19T04:20:19.484Z,0.50
2023-04-19T04:21:19.504Z,0.51
2023-04-19T04:22:19.500Z,0.51
2023-04-19T04:23:19.476Z,0.51
2023-04-19T04:24:19.467Z,0.50
2023-04-19T04:25:21.179Z,0.50
2023-04-19T04:26:19.430Z,0.51
2023-04-19T04:27:19.419Z,0.51
2023-04-19T04:28:19.386Z,0.51
2023-04-19T04:29:19.420Z,0.50
2023-04-19T04:30:19.349Z,0.51
2023-04-19T04:31:19.364Z,0.51
2023-04-19T04:32:19.325Z,0.51
2023-04-19T04:33:19.286Z,0.51
2023-04-19T04:34:19.279Z,0.51
2023-04-19T04:35:19.253Z,0.50
2023-04-19T04:36:19.259Z,0.50
2023-04-19T04:37:19.221Z,0.51
2023-04-19T04:38:24.516Z,0.50
2023-04-19T04:39:19.168Z,0.50
2023-04-19T04:40:19.508Z,0.51
2023-04-19T04:41:20.384Z,0.51
2023-04-19T04:42:19.104Z,0.50
2023-04-19T04:43:19.081Z,0.51
2023-04-19T04:44:19.058Z,0.51
2023-04-19T04:45:19.165Z,0.51
2023-04-19T04:46:19.116Z,0.51
2023-04-19T04:47:19.063Z,0.51
2023-04-19T04:48:18.973Z,0.51
2023-04-19T04:49:18.951Z,0.50
2023-04-19T04:50:18.929Z,0.51
2023-04-19T04:51:18.919Z,0.51
2023-04-19T04:52:18.884Z,0.51
2023-04-19T04:53:18.883Z,0.51
2023-04-19T04:54:18.851Z,0.51
2023-04-19T04:55:18.826Z,0.51
2023-04-19T04:56:18.827Z,0.51
2023-04-19T04:57:18.795Z,0.51
2023-04-19T04:58:20.472Z,0.51
2023-04-19T04:59:18.743Z,0.51
2023-04-19T05:00:18.725Z,0.51
2023-04-19T05:01:18.765Z,0.51
2023-04-19T05:02:18.770Z,0.51
2023-04-19T05:03:18.692Z,0.51
2023-04-19T05:04:19.677Z,0.51
2023-04-19T05:05:18.620Z,0.52
2023-04-19T05:06:18.608Z,0.51
2023-04-19T05:07:18.598Z,0.51
2023-04-19T05:08:18.581Z,0.51
2023-04-19T05:09:18.553Z,0.50
2023-04-19T05:10:18.538Z,0.50
2023-04-19T05:11:18.513Z,0.50
2023-04-19T05:12:18.507Z,0.50
2023-04-19T05:13:18.475Z,0.50
2023-04-19T05:14:18.445Z,0.50
2023-04-19T05:15:18.424Z,0.50
2023-04-19T05:16:18.509Z,0.50
2023-04-19T05:17:18.403Z,0.50
2023-04-19T05:18:18.376Z,0.50
2023-04-19T05:19:18.340Z,0.51
2023-04-19T05:20:18.325Z,0.50
2023-04-19T05:21:18.309Z,0.50
2023-04-19T05:22:18.294Z,0.50
2023-04-19T05:23:18.268Z,0.50
2023-04-19T05:24:18.493Z,0.52
2023-04-19T05:25:18.227Z,0.50
2023-04-19T05:26:18.247Z,0.51
2023-04-19T05:27:18.179Z,0.51
2023-04-19T05:28:18.159Z,0.50
2023-04-19T05:29:18.138Z,0.50
2023-04-19T05:30:17.132Z,0.50
2023-04-19T05:31:18.135Z,0.51
2023-04-19T05:32:18.111Z,0.50
2023-04-19T05:33:18.129Z,0.50
2023-04-19T05:34:21.252Z,0.50
2023-04-19T05:35:18.258Z,0.51
2023-04-19T05:36:18.014Z,0.51
2023-04-19T05:37:17.982Z,0.50
2023-04-19T05:38:17.949Z,0.50
2023-04-19T05:39:17.935Z,0.50
2023-04-19T05:40:17.919Z,0.51
2023-04-19T05:41:17.901Z,0.50
2023-04-19T05:42:17.877Z,0.50
2023-04-19T05:43:17.872Z,0.51
2023-04-19T05:44:18.084Z,0.51
2023-04-19T05:45:18.262Z,0.50
2023-04-19T05:46:17.927Z,0.50
2023-04-19T05:47:18.300Z,0.51
2023-04-19T05:48:17.770Z,0.51
2023-04-19T05:49:17.807Z,0.51
2023-04-19T05:50:17.740Z,0.51
2023-04-19T05:51:17.731Z,0.52
2023-04-19T05:52:17.786Z,0.51
2023-04-19T05:53:17.772Z,0.52
2023-04-19T05:54:17.930Z,0.52
2023-04-19T05:55:17.697Z,0.53
2023-04-19T05:56:17.647Z,0.54
2023-04-19T05:57:17.632Z,0.55
2023-04-19T05:58:17.799Z,0.58
2023-04-19T05:59:17.817Z,0.61
2023-04-19T06:00:18.777Z,0.63
2023-04-19T06:01:17.865Z,0.67
2023-04-19T06:02:24.980Z,0.69
2023-04-19T06:03:17.612Z,0.69
2023-04-19T06:04:21.651Z,0.70
2023-04-19T06:05:17.656Z,0.69
2023-04-19T06:06:17.703Z,0.71
2023-04-19T06:07:31.047Z,0.74
2023-04-19T06:08:24.939Z,0.69
2023-04-19T06:09:17.520Z,0.69
2023-04-19T06:10:17.543Z,0.73
2023-04-19T06:11:34.815Z,0.79
2023-04-19T06:12:17.532Z,0.70
2023-04-19T06:13:17.469Z,0.74
2023-04-19T06:14:18.104Z,0.81
2023-04-19T06:15:17.384Z,0.94
2023-04-19T06:16:17.376Z,1.13
2023-04-19T06:17:17.437Z,1.19
2023-04-19T06:18:19.208Z,1.15
2023-04-19T06:19:17.776Z,1.16
2023-04-19T06:20:20.512Z,1.16
2023-04-19T06:21:17.263Z,1.16
2023-04-19T06:22:17.254Z,1.17
2023-04-19T06:23:18.215Z,1.20
2023-04-19T06:24:17.343Z,1.23
2023-04-19T06:25:17.282Z,1.26
2023-04-19T06:26:17.140Z,1.26
2023-04-19T06:27:17.102Z,1.30
2023-04-19T06:28:17.105Z,1.28
2023-04-19T06:29:17.127Z,1.29
2023-04-19T06:30:17.910Z,1.27
2023-04-19T06:31:17.348Z,1.29
2023-04-19T06:32:17.246Z,1.35
2023-04-19T06:33:17.559Z,1.31
2023-04-19T06:34:17.552Z,1.31
2023-04-19T06:35:17.286Z,1.31
2023-04-19T06:36:17.419Z,1.30
2023-04-19T06:37:18.362Z,1.28
2023-04-19T06:38:17.399Z,1.29
2023-04-19T06:39:17.820Z,1.27
2023-04-19T06:40:17.455Z,1.25
2023-04-19T06:41:17.485Z,1.27
2023-04-19T06:42:17.473Z,1.28
2023-04-19T06:43:18.327Z,1.29
2023-04-19T06:44:18.600Z,1.28
2023-04-19T06:45:17.814Z,1.28
2023-04-19T06:46:17.644Z,1.33
2023-04-19T06:47:17.652Z,1.38
2023-04-19T06:48:17.665Z,1.39
2023-04-19T06:49:20.929Z,1.44
2023-04-19T06:50:17.810Z,1.44
2023-04-19T06:51:19.112Z,1.50
2023-04-19T06:52:17.687Z,1.56
2023-04-19T06:53:17.651Z,1.54
2023-04-19T06:54:18.476Z,1.53
2023-04-19T06:55:17.800Z,1.41
2023-04-19T06:56:17.779Z,1.34
2023-04-19T06:57:17.822Z,1.30
2023-04-19T06:58:17.863Z,1.27
2023-04-19T06:59:17.916Z,1.29
2023-04-19T07:00:18.294Z,1.25
2023-04-19T07:01:17.994Z,1.22
2023-04-19T07:02:18.011Z,1.21
2023-04-19T07:03:18.139Z,1.20
2023-04-19T07:04:18.674Z,1.24
2023-04-19T07:05:18.012Z,1.19
2023-04-19T07:06:18.301Z,1.11
2023-04-19T07:07:18.839Z,1.10
2023-04-19T07:08:18.305Z,1.10
2023-04-19T07:09:18.174Z,1.08
2023-04-19T07:10:18.060Z,1.03
2023-04-19T07:11:18.889Z,1.04
2023-04-19T07:12:18.049Z,1.03
2023-04-19T07:13:18.058Z,0.99
2023-04-19T07:14:18.355Z,0.93
2023-04-19T07:15:18.002Z,0.94
2023-04-19T07:16:18.340Z,0.95
2023-04-19T07:17:17.980Z,0.93
2023-04-19T07:18:17.950Z,0.91
2023-04-19T07:19:17.961Z,0.90
2023-04-19T07:20:18.828Z,0.87
2023-04-19T07:21:18.786Z,0.86
2023-04-19T07:22:17.876Z,0.85
2023-04-19T07:23:18.325Z,0.84
2023-04-19T07:24:18.142Z,0.82
2023-04-19T07:25:17.823Z,0.79
2023-04-19T07:26:17.796Z,0.78
2023-04-19T07:27:17.819Z,0.79
2023-04-19T07:28:17.796Z,0.78
2023-04-19T07:29:17.746Z,0.73
2023-04-19T07:30:17.700Z,0.76
2023-04-19T07:31:17.793Z,0.76
2023-04-19T07:32:17.812Z,0.73
2023-04-19T07:33:17.686Z,0.76
2023-04-19T07:34:18.025Z,0.76
2023-04-19T07:35:17.594Z,0.78
2023-04-19T07:36:17.573Z,0.80
2023-04-19T07:37:24.939Z,0.85
2023-04-19T07:38:17.534Z,0.85
2023-04-19T07:39:17.812Z,0.85
2023-04-19T07:40:17.642Z,0.79
2023-04-19T07:41:17.477Z,0.79
2023-04-19T07:42:17.898Z,0.78
2023-04-19T07:43:17.448Z,0.77
2023-04-19T07:44:18.182Z,0.74
2023-04-19T07:45:17.411Z,0.70
2023-04-19T07:46:17.465Z,0.70
2023-04-19T07:47:17.394Z,0.72
2023-04-19T07:48:18.389Z,0.70
2023-04-19T07:49:17.805Z,0.70
2023-04-19T07:50:17.866Z,0.73
2023-04-19T07:51:17.299Z,0.74
2023-04-19T07:52:17.314Z,0.74
2023-04-19T07:53:17.267Z,0.74
2023-04-19T07:54:17.520Z,0.69
2023-04-19T07:55:17.310Z,0.72
2023-04-19T07:56:17.257Z,0.76
2023-04-19T07:57:17.320Z,0.77
2023-04-19T07:58:17.972Z,0.73
2023-04-19T07:59:17.313Z,0.74
2023-04-19T08:00:17.133Z,0.75
2023-04-19T08:01:17.192Z,0.74
2023-04-19T08:02:17.804Z,0.77
2023-04-19T08:03:17.370Z,0.76
2023-04-19T08:04:17.868Z,0.76
2023-04-19T08:05:17.115Z,0.72
2023-04-19T08:06:17.336Z,0.73
2023-04-19T08:07:17.319Z,0.75
2023-04-19T08:08:17.066Z,0.76
2023-04-19T08:09:16.961Z,0.76
2023-04-19T08:10:16.935Z,0.75
2023-04-19T08:11:16.895Z,0.75
2023-04-19T08:12:32.762Z,0.74
2023-04-19T08:13:16.863Z,0.74
2023-04-19T08:14:32.272Z,0.74
2023-04-19T08:15:50.945Z,0.74
2023-04-19T08:16:32.286Z,0.74
2023-04-19T08:17:24.333Z,0.74
2023-04-19T08:18:16.744Z,0.74
2023-04-19T08:19:16.681Z,0.75
2023-04-19T08:20:16.657Z,0.76
2023-04-19T08:21:16.631Z,0.78
2023-04-19T08:22:16.620Z,0.79
2023-04-19T08:23:24.130Z,0.75
2023-04-19T08:24:16.718Z,0.76
2023-04-19T08:25:16.826Z,0.76
2023-04-19T08:26:16.522Z,0.76
2023-04-19T08:27:16.494Z,0.74
2023-04-19T08:28:16.653Z,0.73
2023-04-19T08:29:17.165Z,0.75
2023-04-19T08:30:16.826Z,0.74
2023-04-19T08:31:16.409Z,0.76
2023-04-19T08:32:16.588Z,0.76
2023-04-19T08:33:16.444Z,0.76
2023-04-19T08:34:16.380Z,0.69
2023-04-19T08:35:16.336Z,0.69
2023-04-19T08:36:19.497Z,0.70
2023-04-19T08:37:16.297Z,0.70
2023-04-19T08:38:16.287Z,0.68
2023-04-19T08:39:29.029Z,0.65
2023-04-19T08:40:16.328Z,0.70
2023-04-19T08:41:16.198Z,0.69
2023-04-19T08:42:28.811Z,0.65
2023-04-19T08:43:16.333Z,0.63
2023-04-19T08:44:25.348Z,0.63
2023-04-19T08:46:15.093Z,0.69
2023-04-19T08:47:27.276Z,0.64
2023-04-19T08:48:16.118Z,0.66
2023-04-19T08:49:16.249Z,0.67
2023-04-19T08:50:31.106Z,0.61
2023-04-19T08:51:16.331Z,0.62
2023-04-19T08:52:15.929Z,0.62
2023-04-19T08:53:24.685Z,0.64
2023-04-19T08:54:15.895Z,0.70
2023-04-19T08:55:16.330Z,0.67
2023-04-19T08:56:24.348Z,0.66
2023-04-19T08:57:16.274Z,0.67
2023-04-19T08:58:26.921Z,0.64
2023-04-19T08:59:20.595Z,0.69
2023-04-19T09:00:15.864Z,0.70
2023-04-19T09:01:30.478Z,0.70
2023-04-19T09:02:15.842Z,0.70
2023-04-19T09:03:16.030Z,0.70
2023-04-19T09:05:14.824Z,0.70
2023-04-19T09:06:15.742Z,0.68
2023-04-19T09:07:15.833Z,0.64
2023-04-19T09:08:15.587Z,0.62
2023-04-19T09:09:28.403Z,0.63
2023-04-19T09:10:15.561Z,0.63
2023-04-19T09:11:15.528Z,0.63
2023-04-19T09:12:15.857Z,0.64
2023-04-19T09:13:15.481Z,0.63
2023-04-19T09:14:15.923Z,0.63
2023-04-19T09:15:15.841Z,0.63
2023-04-19T09:16:15.460Z,0.60
2023-04-19T09:17:15.394Z,0.58
2023-04-19T09:18:15.410Z,0.61
2023-04-19T09:20:14.341Z,0.63
2023-04-19T09:21:15.318Z,0.63
2023-04-19T09:22:15.333Z,0.64
2023-04-19T09:23:15.271Z,0.59
2023-04-19T09:24:15.250Z,0.58
2023-04-19T09:25:39.103Z,0.57
2023-04-19T09:26:22.667Z,0.58
2023-04-19T09:27:15.176Z,0.58
2023-04-19T09:28:15.138Z,0.58
2023-04-19T09:29:15.413Z,0.58
2023-04-19T09:30:27.991Z,0.59
2023-04-19T09:31:35.383Z,0.58
2023-04-19T09:32:15.145Z,0.58
2023-04-19T09:33:15.129Z,0.59
2023-04-19T09:34:15.222Z,0.61
2023-04-19T09:35:15.346Z,0.63
2023-04-19T09:36:15.342Z,0.45
2023-04-19T09:37:25.033Z,0.57
2023-04-19T09:38:14.951Z,0.57
2023-04-19T09:39:15.603Z,0.60
2023-04-19T09:40:14.887Z,0.66
2023-04-19T09:41:14.857Z,0.74
2023-04-19T09:42:17.499Z,0.86
2023-04-19T09:44:41.831Z,0.58
2023-04-19T09:46:13.880Z,0.58
2023-04-19T09:47:14.731Z,0.62
2023-04-19T09:48:14.754Z,0.69
2023-04-19T09:49:22.988Z,0.79
2023-04-19T09:50:23.764Z,0.58
2023-04-19T09:51:15.140Z,0.58
2023-04-19T09:52:14.655Z,0.58
2023-04-19T09:53:14.588Z,0.63
2023-04-19T09:54:14.561Z,0.70
2023-04-19T09:55:26.940Z,0.81
2023-04-19T09:56:14.511Z,0.58
2023-04-19T09:57:14.482Z,0.62
2023-04-19T09:58:14.760Z,0.69
2023-04-19T09:59:20.886Z,0.81
2023-04-19T10:00:14.394Z,0.58
2023-04-19T10:01:16.326Z,0.62
2023-04-19T10:02:14.464Z,0.58
2023-04-19T10:03:14.366Z,0.63
2023-04-19T10:04:25.857Z,0.70
2023-04-19T10:06:27.159Z,0.58
2023-04-19T10:08:13.269Z,0.58
2023-04-19T10:09:14.556Z,0.63
2023-04-19T10:10:20.445Z,0.70
2023-04-19T10:11:14.354Z,0.58
2023-04-19T10:12:31.235Z,0.63
2023-04-19T10:13:19.647Z,0.58
2023-04-19T10:14:14.463Z,0.58
2023-04-19T10:15:13.982Z,0.63
2023-04-19T10:16:19.451Z,0.71
2023-04-19T10:17:14.350Z,0.58
2023-04-19T10:18:13.915Z,0.63
2023-04-19T10:19:13.987Z,0.71
2023-04-19T10:20:14.048Z,0.85
2023-04-19T10:21:13.858Z,1.08
2023-04-19T10:22:13.765Z,1.12
2023-04-19T10:23:13.733Z,1.10
2023-04-19T10:24:13.729Z,1.09
2023-04-19T10:25:13.673Z,1.06
2023-04-19T10:26:13.863Z,1.04
2023-04-19T10:27:13.653Z,1.04
2023-04-19T10:28:13.670Z,1.05
2023-04-19T10:29:13.816Z,1.02
2023-04-19T10:30:13.877Z,1.02
2023-04-19T10:31:13.505Z,0.99
2023-04-19T10:32:13.634Z,1.03
2023-04-19T10:33:13.534Z,1.07
2023-04-19T10:34:13.599Z,1.13
2023-04-19T10:35:14.664Z,1.17
2023-04-19T10:36:13.921Z,1.17
2023-04-19T10:37:13.725Z,1.19
2023-04-19T10:38:13.780Z,1.16
2023-04-19T10:39:14.016Z,1.15
2023-04-19T10:40:13.919Z,1.17
2023-04-19T10:41:16.947Z,1.15
2023-04-19T10:42:13.872Z,1.15
2023-04-19T10:43:13.845Z,1.15
2023-04-19T10:44:13.821Z,1.14
2023-04-19T10:45:13.807Z,1.12
2023-04-19T10:46:13.847Z,1.13
2023-04-19T10:47:14.673Z,1.13
2023-04-19T10:48:13.869Z,1.13
2023-04-19T10:49:14.057Z,1.11
2023-04-19T10:50:14.371Z,1.08
2023-04-19T10:51:13.985Z,1.06
2023-04-19T10:52:14.117Z,1.01
2023-04-19T10:53:14.316Z,1.02
2023-04-19T10:54:14.096Z,1.04
2023-04-19T10:55:14.130Z,1.06
2023-04-19T10:56:14.376Z,1.06
2023-04-19T10:57:14.196Z,1.06
2023-04-19T10:58:14.331Z,1.05
2023-04-19T10:59:14.295Z,1.08
2023-04-19T11:00:14.315Z,1.08
2023-04-19T11:01:14.391Z,1.13
2023-04-19T11:02:15.693Z,1.11
2023-04-19T11:03:14.549Z,1.09
2023-04-19T11:04:14.597Z,1.08
2023-04-19T11:05:14.501Z,1.08
2023-04-19T11:06:14.499Z,1.10
2023-04-19T11:07:14.877Z,1.06
2023-04-19T11:08:14.673Z,1.07
2023-04-19T11:09:14.816Z,1.09
2023-04-19T11:10:14.632Z,1.08
2023-04-19T11:11:14.662Z,1.10
2023-04-19T11:12:14.689Z,1.10
2023-04-19T11:13:14.725Z,1.08
2023-04-19T11:14:14.757Z,1.12
2023-04-19T11:15:14.789Z,1.10
2023-04-19T11:16:14.909Z,1.10
2023-04-19T11:17:14.941Z,1.12
2023-04-19T11:18:15.421Z,1.06
2023-04-19T11:19:15.292Z,1.09
2023-04-19T11:20:14.975Z,1.08
2023-04-19T11:21:15.009Z,1.04
2023-04-19T11:22:15.056Z,1.05
2023-04-19T11:23:15.084Z,1.03
2023-04-19T11:24:15.162Z,1.04
2023-04-19T11:25:15.166Z,1.04
2023-04-19T11:26:15.201Z,1.03
2023-04-19T11:27:15.251Z,0.98
2023-04-19T11:28:15.288Z,0.98
2023-04-19T11:29:15.495Z,0.97
2023-04-19T11:30:15.420Z,0.96
2023-04-19T11:31:15.443Z,0.94
2023-04-19T11:32:15.465Z,0.93
2023-04-19T11:33:15.500Z,0.93
2023-04-19T11:34:15.944Z,0.92
2023-04-19T11:35:15.580Z,0.90
2023-04-19T11:36:15.615Z,0.90
2023-04-19T11:37:15.645Z,0.87
2023-04-19T11:38:15.689Z,0.86
2023-04-19T11:39:15.742Z,0.86
2023-04-19T11:40:15.794Z,0.85
2023-04-19T11:41:16.290Z,0.84
2023-04-19T11:42:15.906Z,0.82
2023-04-19T11:43:15.885Z,0.81
2023-04-19T11:44:16.260Z,0.79
2023-04-19T11:45:28.799Z,0.78
2023-04-19T11:46:15.970Z,0.78
2023-04-19T11:47:15.886Z,0.78
2023-04-19T11:48:15.995Z,0.75
2023-04-19T11:49:15.833Z,0.73
2023-04-19T11:50:15.820Z,0.72
2023-04-19T11:51:15.785Z,0.71
2023-04-19T11:52:15.774Z,0.70
2023-04-19T11:53:15.905Z,0.68
2023-04-19T11:54:15.933Z,0.68
2023-04-19T11:55:15.694Z,0.67
2023-04-19T11:56:15.931Z,0.67
2023-04-19T11:57:15.624Z,0.64
2023-04-19T11:58:15.598Z,0.65
2023-04-19T11:59:15.566Z,0.64
2023-04-19T12:00:15.545Z,0.64
2023-04-19T12:01:15.554Z,0.64
2023-04-19T12:02:15.505Z,0.62
2023-04-19T12:03:15.699Z,0.62
2023-04-19T12:04:16.049Z,0.61
2023-04-19T12:05:15.560Z,0.61
2023-04-19T12:06:15.409Z,0.61
2023-04-19T12:07:15.403Z,0.60
2023-04-19T12:08:15.331Z,0.60
2023-04-19T12:09:15.305Z,0.60
2023-04-19T12:10:15.289Z,0.60
2023-04-19T12:11:15.451Z,0.60
2023-04-19T12:12:15.379Z,0.59
2023-04-19T12:13:15.200Z,0.59
2023-04-19T12:14:15.524Z,0.58
2023-04-19T12:15:15.138Z,0.57
2023-04-19T12:16:15.138Z,0.57
2023-04-19T12:17:15.402Z,0.64
2023-04-19T12:18:15.091Z,0.67
2023-04-19T12:19:15.198Z,0.68
2023-04-19T12:20:15.003Z,0.65
2023-04-19T12:21:14.995Z,0.63
2023-04-19T12:22:14.962Z,0.66
2023-04-19T12:23:14.923Z,1.00
2023-04-19T12:24:14.896Z,1.14
2023-04-19T12:25:14.875Z,1.46
2023-04-19T12:26:14.849Z,1.72
2023-04-19T12:27:14.828Z,1.70
2023-04-19T12:28:14.876Z,1.81
2023-04-19T12:29:14.015Z,1.85
2023-04-19T12:30:14.754Z,2.36
2023-04-19T12:31:14.732Z,2.36
2023-04-19T12:32:14.939Z,2.19
2023-04-19T12:33:14.717Z,2.13
2023-04-19T12:34:14.914Z,2.02
2023-04-19T12:35:14.643Z,1.96
2023-04-19T12:36:14.617Z,1.89
2023-04-19T12:37:14.600Z,1.84
2023-04-19T12:38:14.581Z,1.80
2023-04-19T12:39:14.750Z,1.71
2023-04-19T12:40:14.519Z,1.66
2023-04-19T12:41:14.517Z,1.59
2023-04-19T12:42:14.469Z,1.52
2023-04-19T12:43:14.451Z,1.45
2023-04-19T12:44:14.750Z,1.39
2023-04-19T12:45:14.405Z,1.33
2023-04-19T12:46:14.438Z,1.27
2023-04-19T12:47:14.357Z,1.25
2023-04-19T12:48:14.335Z,1.22
2023-04-19T12:49:14.615Z,1.20
2023-04-19T12:50:14.283Z,1.17
2023-04-19T12:51:14.425Z,1.14
2023-04-19T12:52:14.258Z,1.14
2023-04-19T12:53:14.228Z,1.11
2023-04-19T12:54:14.205Z,1.09
2023-04-19T12:55:14.191Z,1.07
2023-04-19T12:56:14.164Z,1.05
2023-04-19T12:57:14.412Z,1.02
2023-04-19T12:58:14.109Z,1.02
2023-04-19T12:59:14.241Z,0.99
2023-04-19T13:00:14.106Z,0.99
2023-04-19T13:01:14.040Z,0.98
2023-04-19T13:02:14.084Z,0.98
2023-04-19T13:03:14.736Z,0.97
2023-04-19T13:04:14.274Z,0.98
2023-04-19T13:05:13.951Z,0.96
2023-04-19T13:06:13.920Z,0.96
2023-04-19T13:07:13.892Z,0.95
2023-04-19T13:08:13.867Z,0.93
2023-04-19T13:09:14.836Z,0.94
2023-04-19T13:10:13.805Z,0.95
2023-04-19T13:11:13.780Z,0.92
2023-04-19T13:12:13.746Z,0.90
2023-04-19T13:13:13.715Z,0.90
2023-04-19T13:14:13.682Z,0.91
2023-04-19T13:15:13.662Z,0.90
2023-04-19T13:16:14.071Z,0.90
2023-04-19T13:17:13.608Z,0.90
2023-04-19T13:18:13.600Z,0.88
2023-04-19T13:19:13.581Z,0.88
2023-04-19T13:20:13.572Z,0.87
2023-04-19T13:21:13.555Z,0.86
2023-04-19T13:22:13.929Z,0.85
2023-04-19T13:23:13.522Z,0.85
2023-04-19T13:24:13.551Z,0.86
2023-04-19T13:25:13.500Z,0.85